createdAt,value
2023-03-21T00:00:44.293Z,4.50
2023-03-21T00:03:12.431Z,4.50
2023-03-21T00:05:52.243Z,3.90
2023-03-21T00:08:24.624Z,4.40
2023-03-21T00:11:00.950Z,4.55
2023-03-21T00:13:33.133Z,4.22
2023-03-21T00:16:15.761Z,4.63
2023-03-21T00:18:52.735Z,4.32
2023-03-21T00:24:15.652Z,4.10
2023-03-21T00:26:42.659Z,4.15
2023-03-21T00:29:10.669Z,3.85
2023-03-21T00:31:39.800Z,4.57
2023-03-21T00:34:06.756Z,4.22
2023-03-21T00:36:34.418Z,4.20
2023-03-21T00:39:01.609Z,3.88
2023-03-21T00:41:42.071Z,3.75
2023-03-21T00:44:11.879Z,3.83
2023-03-21T00:46:51.331Z,3.50
2023-03-21T00:49:25.560Z,3.90
2023-03-21T00:51:53.299Z,3.67
2023-03-21T00:54:20.411Z,3.80
2023-03-21T00:56:48.361Z,4.10
2023-03-21T00:59:15.656Z,3.35
2023-03-21T01:01:44.068Z,3.83
2023-03-21T01:04:14.697Z,3.75
2023-03-21T01:06:43.829Z,3.50
2023-03-21T01:09:20.976Z,3.55
2023-03-21T01:11:49.218Z,3.47
2023-03-21T01:14:22.999Z,3.72
2023-03-21T01:16:53.114Z,3.70
2023-03-21T01:19:29.206Z,3.60
2023-03-21T01:22:00.354Z,3.58
2023-03-21T01:24:27.372Z,3.63
2023-03-21T01:26:54.618Z,3.70
2023-03-21T01:29:21.834Z,4.22
2023-03-21T01:31:49.041Z,3.70
2023-03-21T01:34:16.366Z,3.38
2023-03-21T01:36:44.221Z,3.50
2023-03-21T01:39:16.306Z,3.63
2023-03-21T01:41:44.736Z,3.70
2023-03-21T01:44:20.942Z,3.47
2023-03-21T01:47:12.481Z,3.60
2023-03-21T01:49:51.526Z,3.42
2023-03-21T01:52:36.924Z,3.78
2023-03-21T01:55:12.579Z,3.50
2023-03-21T01:58:04.734Z,3.45
2023-03-21T02:00:41.699Z,4.35
2023-03-21T02:03:35.078Z,3.90
2023-03-21T02:06:20.409Z,3.80
2023-03-21T02:08:50.173Z,3.67
2023-03-21T02:11:17.520Z,3.53
2023-03-21T02:13:44.701Z,3.47
2023-03-21T02:16:26.488Z,3.40
2023-03-21T02:19:32.879Z,3.40
2023-03-21T02:22:32.663Z,3.40
2023-03-21T02:25:31.355Z,3.63
2023-03-21T02:28:24.965Z,3.72
2023-03-21T02:31:24.534Z,3.40
2023-03-21T02:34:00.136Z,3.03
2023-03-21T02:36:52.162Z,3.05
2023-03-21T02:39:32.145Z,3.00
2023-03-21T02:42:11.640Z,3.10
2023-03-21T02:44:47.389Z,3.15
2023-03-21T02:47:35.124Z,2.97
2023-03-21T02:50:09.513Z,3.17
2023-03-21T02:52:39.817Z,3.20
2023-03-21T02:55:15.670Z,3.58
2023-03-21T02:58:06.933Z,3.53
2023-03-21T03:00:44.664Z,3.60
2023-03-21T03:06:01.276Z,3.30
2023-03-21T03:08:53.044Z,3.40
2023-03-21T03:11:41.836Z,3.60
2023-03-21T03:14:49.930Z,3.17
2023-03-21T03:17:38.986Z,3.40
2023-03-21T03:20:29.088Z,3.08
2023-03-21T03:22:59.962Z,2.95
2023-03-21T03:25:49.621Z,3.40
2023-03-21T03:28:27.067Z,3.08
2023-03-21T03:31:08.031Z,3.55
2023-03-21T03:33:47.832Z,3.40
2023-03-21T03:36:33.604Z,3.25
2023-03-21T03:39:11.468Z,3.47
2023-03-21T03:44:39.101Z,7.03
2023-03-21T03:47:22.857Z,2.70
2023-03-21T03:50:06.479Z,3.00
2023-03-21T03:52:53.638Z,2.92
2023-03-21T03:55:27.334Z,2.75
2023-03-21T03:57:59.081Z,6.88
2023-03-21T04:00:28.237Z,9.27
2023-03-21T04:02:55.779Z,3.83
2023-03-21T04:05:25.220Z,10.70
2023-03-21T04:07:54.026Z,5.40
2023-03-21T04:10:28.820Z,3.08
2023-03-21T04:12:56.016Z,3.05
2023-03-21T04:15:41.585Z,2.88
2023-03-21T04:18:14.148Z,3.70
2023-03-21T04:20:42.024Z,10.35
2023-03-21T04:23:09.198Z,3.80
2023-03-21T04:25:42.274Z,3.95
2023-03-21T04:28:15.941Z,2.95
2023-03-21T04:31:03.802Z,3.15
2023-03-21T04:33:43.191Z,3.58
2023-03-21T04:36:18.805Z,3.60
2023-03-21T04:38:48.692Z,3.42
2023-03-21T04:41:16.846Z,2.88
2023-03-21T04:43:44.786Z,3.10
2023-03-21T04:46:12.240Z,3.40
2023-03-21T04:48:39.385Z,3.90
2023-03-21T04:51:07.529Z,3.90
2023-03-21T04:53:37.744Z,3.72
2023-03-21T04:56:07.040Z,5.47
2023-03-21T04:58:34.569Z,7.10
2023-03-21T05:01:03.055Z,5.60
2023-03-21T05:03:34.947Z,4.80
2023-03-21T05:06:02.030Z,5.90
2023-03-21T05:08:28.913Z,6.88
2023-03-21T05:10:55.915Z,7.80
2023-03-21T05:15:56.785Z,4.50
2023-03-21T05:18:25.171Z,4.53
2023-03-21T05:21:04.396Z,8.75
2023-03-21T05:23:32.084Z,8.85
2023-03-21T05:25:59.466Z,7.25
2023-03-21T05:28:40.211Z,5.53
2023-03-21T05:31:09.033Z,4.57
2023-03-21T05:33:36.346Z,5.00
2023-03-21T05:36:03.518Z,4.40
2023-03-21T05:38:33.550Z,3.65
2023-03-21T05:41:00.768Z,3.95
2023-03-21T05:43:28.878Z,9.50
2023-03-21T05:45:56.094Z,4.28
2023-03-21T05:48:23.883Z,4.10
2023-03-21T05:51:05.285Z,4.30
2023-03-21T05:53:32.278Z,4.05
2023-03-21T05:55:59.083Z,4.15
2023-03-21T05:58:47.684Z,4.40
2023-03-21T06:01:15.011Z,4.22
2023-03-21T06:03:48.212Z,4.05
2023-03-21T06:06:22.418Z,5.40
2023-03-21T06:08:54.024Z,4.65
2023-03-21T06:11:30.886Z,4.05
2023-03-21T06:14:18.410Z,3.92
2023-03-21T06:16:49.730Z,4.15
2023-03-21T06:19:16.996Z,4.30
2023-03-21T06:22:00.434Z,3.80
2023-03-21T06:24:28.066Z,3.67
2023-03-21T06:26:55.033Z,4.65
2023-03-21T06:29:22.809Z,5.50
2023-03-21T06:31:51.083Z,4.80
2023-03-21T06:34:19.179Z,9.52
2023-03-21T06:36:47.133Z,9.65
2023-03-21T06:39:16.313Z,8.60
2023-03-21T06:41:46.106Z,4.85
2023-03-21T06:44:13.372Z,5.85
2023-03-21T06:46:49.597Z,4.53
2023-03-21T06:49:20.368Z,4.30
2023-03-21T06:51:47.420Z,3.72
2023-03-21T06:54:19.076Z,4.22
2023-03-21T06:57:13.721Z,4.10
2023-03-21T06:59:42.149Z,7.72
2023-03-21T07:02:13.809Z,4.63
2023-03-21T07:04:46.896Z,5.10
2023-03-21T07:07:19.009Z,4.05
2023-03-21T07:09:46.211Z,9.23
2023-03-21T07:12:13.120Z,6.88
2023-03-21T07:15:01.378Z,6.97
2023-03-21T07:17:28.694Z,4.85
2023-03-21T07:19:57.357Z,4.68
2023-03-21T07:22:26.455Z,3.47
2023-03-21T07:25:04.382Z,3.92
2023-03-21T07:27:40.791Z,3.35
2023-03-21T07:30:09.408Z,3.28
2023-03-21T07:32:38.264Z,3.45
2023-03-21T07:35:09.240Z,3.05
2023-03-21T07:37:37.905Z,3.20
2023-03-21T07:40:15.429Z,3.40
2023-03-21T07:42:42.812Z,3.65
2023-03-21T07:45:20.711Z,3.13
2023-03-21T07:47:49.812Z,3.90
2023-03-21T07:50:16.949Z,3.45
2023-03-21T07:52:45.636Z,4.35
2023-03-21T07:55:12.547Z,3.47
2023-03-21T07:57:40.969Z,3.42
2023-03-21T08:00:08.858Z,3.15
2023-03-21T08:02:42.515Z,3.55
2023-03-21T08:05:11.678Z,6.10
2023-03-21T08:07:38.871Z,5.65
2023-03-21T08:10:10.221Z,4.63
2023-03-21T08:12:37.482Z,3.50
2023-03-21T08:15:04.753Z,3.72
2023-03-21T08:17:31.674Z,4.60
2023-03-21T08:19:58.573Z,4.53
2023-03-21T08:22:25.721Z,3.95
2023-03-21T08:24:52.933Z,3.47
2023-03-21T08:27:20.943Z,3.80
2023-03-21T08:29:47.802Z,4.00
2023-03-21T08:32:18.479Z,4.03
2023-03-21T08:34:45.723Z,3.60
2023-03-21T08:37:12.675Z,7.03
2023-03-21T08:39:40.632Z,5.18
2023-03-21T08:42:08.149Z,3.10
2023-03-21T08:44:35.019Z,2.90
2023-03-21T08:47:02.390Z,3.40
2023-03-21T08:49:29.285Z,2.72
2023-03-21T08:51:57.063Z,4.82
2023-03-21T08:54:25.389Z,2.30
2023-03-21T08:56:52.329Z,2.53
2023-03-21T08:59:19.814Z,2.88
2023-03-21T09:01:48.727Z,3.22
2023-03-21T09:04:15.708Z,2.60
2023-03-21T09:06:48.039Z,2.65
2023-03-21T09:09:16.026Z,3.90
2023-03-21T09:11:43.016Z,2.42
2023-03-21T09:14:10.104Z,2.88
2023-03-21T09:16:39.310Z,2.70
2023-03-21T09:19:09.200Z,4.53
2023-03-21T09:21:36.952Z,2.25
2023-03-21T09:24:06.213Z,6.22
2023-03-21T09:26:33.533Z,4.72
2023-03-21T09:29:03.914Z,4.45
2023-03-21T09:31:31.193Z,3.60
2023-03-21T09:33:58.510Z,2.95
2023-03-21T09:36:27.422Z,3.47
2023-03-21T09:38:57.595Z,2.85
2023-03-21T09:41:36.455Z,2.95
2023-03-21T09:44:33.485Z,2.88
2023-03-21T09:47:10.468Z,2.75
2023-03-21T09:49:44.808Z,2.55
2023-03-21T09:52:22.750Z,4.70
2023-03-21T09:54:52.762Z,3.65
2023-03-21T09:57:27.430Z,2.80
2023-03-21T09:59:56.599Z,2.22
2023-03-21T10:02:47.306Z,2.67
2023-03-21T10:05:24.062Z,3.00
2023-03-21T10:08:07.429Z,2.30
2023-03-21T10:11:15.531Z,3.67
2023-03-21T10:13:53.594Z,2.60
2023-03-21T10:16:27.708Z,3.30
2023-03-21T10:18:55.910Z,2.63
2023-03-21T10:21:56.664Z,4.55
2023-03-21T10:24:20.126Z,2.88
2023-03-21T10:26:48.238Z,2.30
2023-03-21T10:29:17.439Z,2.40
2023-03-21T10:31:46.993Z,2.20
2023-03-21T10:34:20.277Z,3.13
2023-03-21T10:36:47.870Z,2.85
2023-03-21T10:39:23.264Z,3.95
2023-03-21T10:41:50.166Z,2.58
2023-03-21T10:44:18.776Z,2.10
2023-03-21T10:46:57.704Z,1.95
2023-03-21T10:49:26.706Z,2.78
2023-03-21T10:51:58.113Z,1.92
2023-03-21T10:54:36.829Z,1.60
2023-03-21T10:57:08.407Z,2.35
2023-03-21T10:59:58.215Z,2.40
2023-03-21T11:02:30.525Z,2.33
2023-03-21T11:05:05.013Z,2.30
2023-03-21T11:07:32.442Z,2.65
2023-03-21T11:10:01.063Z,1.40
2023-03-21T11:12:38.387Z,2.13
2023-03-21T11:15:27.966Z,1.67
2023-03-21T11:17:55.456Z,2.22
2023-03-21T11:20:23.113Z,1.55
2023-03-21T11:22:55.611Z,2.72
2023-03-21T11:25:34.077Z,2.22
2023-03-21T11:28:07.287Z,2.70
2023-03-21T11:30:34.313Z,2.28
2023-03-21T11:33:03.827Z,2.03
2023-03-21T11:35:37.766Z,2.05
2023-03-21T11:38:07.264Z,3.10
2023-03-21T11:40:36.619Z,1.42
2023-03-21T11:43:28.488Z,1.83
2023-03-21T11:46:04.653Z,1.98
2023-03-21T11:48:50.114Z,2.90
2023-03-21T11:51:49.749Z,2.70
2023-03-21T11:54:20.010Z,2.00
2023-03-21T11:57:01.013Z,1.83
2023-03-21T11:59:31.036Z,1.40
2023-03-21T12:02:04.434Z,1.90
2023-03-21T12:04:46.697Z,2.55
2023-03-21T12:07:27.424Z,3.00
2023-03-21T12:09:57.912Z,1.88
2023-03-21T12:12:36.544Z,2.30
2023-03-21T12:15:49.475Z,2.50
2023-03-21T12:18:35.374Z,2.08
2023-03-21T12:21:09.799Z,1.77
2023-03-21T12:23:49.303Z,2.50
2023-03-21T12:26:27.290Z,1.90
2023-03-21T12:29:22.106Z,2.40
2023-03-21T12:32:17.213Z,2.80
2023-03-21T12:35:15.056Z,2.38
2023-03-21T12:38:24.677Z,2.20
2023-03-21T12:41:12.008Z,2.10
2023-03-21T12:44:04.524Z,1.90
2023-03-21T12:46:46.944Z,3.03
2023-03-21T12:49:30.769Z,2.15
2023-03-21T12:52:22.084Z,1.98
2023-03-21T12:54:58.478Z,2.20
2023-03-21T12:57:56.484Z,1.83
2023-03-21T13:00:33.368Z,2.58
2023-03-21T13:03:08.767Z,1.60
2023-03-21T13:05:50.641Z,2.83
2023-03-21T13:08:31.489Z,2.35
2023-03-21T13:11:00.270Z,1.95
2023-03-21T13:13:35.561Z,1.50
2023-03-21T13:16:30.482Z,1.98
2023-03-21T13:19:22.164Z,2.22
2023-03-21T13:22:01.741Z,1.83
2023-03-21T13:25:06.324Z,1.70
2023-03-21T13:27:43.121Z,1.65
2023-03-21T13:30:29.635Z,1.90
2023-03-21T13:33:14.522Z,3.13
2023-03-21T13:35:46.382Z,1.58
2023-03-21T13:38:22.549Z,3.53
2023-03-21T13:41:06.194Z,4.75
2023-03-21T13:43:45.713Z,1.90
2023-03-21T13:46:26.567Z,3.58
2023-03-21T13:48:58.861Z,2.20
2023-03-21T13:51:48.934Z,4.75
2023-03-21T13:54:35.035Z,2.50
2023-03-21T13:57:07.014Z,2.45
2023-03-21T13:59:45.435Z,2.00
2023-03-21T14:02:12.869Z,1.30
2023-03-21T14:04:53.903Z,2.15
2023-03-21T14:07:44.918Z,1.65
2023-03-21T14:10:22.611Z,4.40
2023-03-21T14:12:50.717Z,1.83
2023-03-21T14:15:25.098Z,2.00
2023-03-21T14:18:01.603Z,3.42
2023-03-21T14:20:39.350Z,3.03
2023-03-21T14:23:07.215Z,2.05
2023-03-21T14:25:46.814Z,1.90
2023-03-21T14:28:33.038Z,2.10
2023-03-21T14:31:02.151Z,2.15
2023-03-21T14:33:57.786Z,2.33
2023-03-21T14:36:29.972Z,1.88
2023-03-21T14:39:16.002Z,2.03
2023-03-21T14:41:54.098Z,2.10
2023-03-21T14:44:28.278Z,2.25
2023-03-21T14:47:08.410Z,2.15
2023-03-21T14:49:38.807Z,1.95
2023-03-21T14:52:15.075Z,2.75
2023-03-21T14:54:47.441Z,2.00
2023-03-21T14:57:20.085Z,2.05
2023-03-21T14:59:53.643Z,2.30
2023-03-21T15:02:26.918Z,2.20
2023-03-21T15:04:58.121Z,2.50
2023-03-21T15:07:32.616Z,4.00
2023-03-21T15:10:05.250Z,2.90
2023-03-21T15:12:34.735Z,2.38
2023-03-21T15:15:03.621Z,2.47
2023-03-21T15:17:31.361Z,1.98
2023-03-21T15:19:58.241Z,2.22
2023-03-21T15:22:39.442Z,2.30
2023-03-21T15:25:13.349Z,2.00
2023-03-21T15:27:42.762Z,2.15
2023-03-21T15:30:22.717Z,2.42
2023-03-21T15:32:49.832Z,2.38
2023-03-21T15:35:21.622Z,2.22
2023-03-21T15:37:58.563Z,2.15
2023-03-21T15:40:35.918Z,3.10
2023-03-21T15:43:07.707Z,3.13
2023-03-21T15:45:56.919Z,2.42
2023-03-21T15:48:29.451Z,2.15
2023-03-21T15:51:23.735Z,1.95
2023-03-21T15:56:25.251Z,5.10
2023-03-21T15:58:55.780Z,2.13
2023-03-21T16:01:26.581Z,2.55
2023-03-21T16:04:13.894Z,1.92
2023-03-21T16:09:42.852Z,1.73
2023-03-21T16:12:13.080Z,2.00
2023-03-21T16:14:40.354Z,2.08
2023-03-21T16:17:28.436Z,2.00
2023-03-21T16:19:55.456Z,2.15
2023-03-21T16:22:22.493Z,2.15
2023-03-21T16:24:49.905Z,2.60
2023-03-21T16:27:19.018Z,3.10
2023-03-21T16:29:46.212Z,3.20
2023-03-21T16:32:16.879Z,3.15
2023-03-21T16:34:44.750Z,5.07
2023-03-21T16:37:12.995Z,2.88
2023-03-21T16:39:39.842Z,3.00
2023-03-21T16:42:07.322Z,5.63
2023-03-21T16:44:35.874Z,10.60
2023-03-21T16:47:03.187Z,7.03
2023-03-21T16:49:30.635Z,4.15
2023-03-21T16:51:57.858Z,5.05
2023-03-21T16:54:25.953Z,4.65
2023-03-21T16:56:56.361Z,3.45
2023-03-21T16:59:33.002Z,4.07
2023-03-21T17:02:00.101Z,11.57
2023-03-21T17:04:27.152Z,4.78
2023-03-21T17:06:55.220Z,4.75
2023-03-21T17:09:26.523Z,12.00
2023-03-21T17:11:53.631Z,18.38
2023-03-21T17:14:24.079Z,26.73
2023-03-21T17:16:51.082Z,50.55
2023-03-21T17:19:26.557Z,27.33
2023-03-21T17:21:55.369Z,22.45
2023-03-21T17:24:24.049Z,18.08
2023-03-21T17:26:51.728Z,4.72
2023-03-21T17:29:18.559Z,3.92
2023-03-21T17:31:47.603Z,4.10
2023-03-21T17:34:16.027Z,2.25
2023-03-21T17:36:45.269Z,2.50
2023-03-21T17:39:19.096Z,2.58
2023-03-21T17:41:47.613Z,2.20
2023-03-21T17:44:17.642Z,4.13
2023-03-21T17:46:44.971Z,4.60
2023-03-21T17:49:15.545Z,5.35
2023-03-21T17:51:43.859Z,16.30
2023-03-21T17:54:10.646Z,7.32
2023-03-21T17:56:37.757Z,6.55
2023-03-21T17:59:09.069Z,9.15
2023-03-21T18:01:36.484Z,8.07
2023-03-21T18:04:08.131Z,9.73
2023-03-21T18:06:37.582Z,15.10
2023-03-21T18:09:11.402Z,5.95
2023-03-21T18:11:39.632Z,4.90
2023-03-21T18:14:15.749Z,5.13
2023-03-21T18:16:45.118Z,5.72
2023-03-21T18:19:14.472Z,5.32
2023-03-21T18:21:45.509Z,7.43
2023-03-21T18:24:13.808Z,5.50
2023-03-21T18:26:41.345Z,6.93
2023-03-21T18:32:06.252Z,7.75
2023-03-21T18:34:38.920Z,9.05
2023-03-21T18:37:08.416Z,5.35
2023-03-21T18:39:35.788Z,6.88
2023-03-21T18:42:05.408Z,6.53
2023-03-21T18:44:39.014Z,7.18
2023-03-21T18:47:08.753Z,6.40
2023-03-21T18:54:58.302Z,2.90
2023-03-21T18:57:36.437Z,4.05
2023-03-21T19:00:13.175Z,4.80
2023-03-21T19:02:48.330Z,3.03
2023-03-21T19:05:18.077Z,3.53
2023-03-21T19:07:48.356Z,5.32
2023-03-21T19:10:21.090Z,4.45
2023-03-21T19:12:51.505Z,4.72
2023-03-21T19:15:21.597Z,5.80
2023-03-21T19:20:37.591Z,5.57
2023-03-21T19:23:06.474Z,4.50
2023-03-21T19:25:33.327Z,4.88
2023-03-21T19:28:01.005Z,5.18
2023-03-21T19:30:27.959Z,4.45
2023-03-21T19:32:55.564Z,5.13
2023-03-21T19:35:23.507Z,3.80
2023-03-21T19:37:51.564Z,3.83
2023-03-21T19:40:20.209Z,4.43
2023-03-21T19:42:47.829Z,7.97
2023-03-21T19:45:15.793Z,8.40
2023-03-21T19:47:42.713Z,8.23
2023-03-21T19:52:57.314Z,6.68
2023-03-21T19:55:24.371Z,5.22
2023-03-21T19:57:53.816Z,5.50
2023-03-21T20:00:21.343Z,4.80
2023-03-21T20:02:48.454Z,5.70
2023-03-21T20:05:17.483Z,3.83
2023-03-21T20:07:45.083Z,3.97
2023-03-21T20:10:12.126Z,4.88
2023-03-21T20:12:39.781Z,5.30
2023-03-21T20:15:17.304Z,7.40
2023-03-21T20:17:49.626Z,4.93
2023-03-21T20:20:18.596Z,4.57
2023-03-21T20:23:06.091Z,5.50
2023-03-21T20:25:35.657Z,4.57
2023-03-21T20:28:25.950Z,5.28
2023-03-21T20:30:57.075Z,4.10
2023-03-21T20:33:28.297Z,4.05
2023-03-21T20:38:47.006Z,3.58
2023-03-21T20:41:14.195Z,4.15
2023-03-21T20:46:28.830Z,4.82
2023-03-21T20:48:55.953Z,4.95
2023-03-21T20:54:11.303Z,4.45
2023-03-21T20:56:39.675Z,4.68
2023-03-21T20:59:18.736Z,4.88
2023-03-21T21:01:51.279Z,4.53
2023-03-21T21:04:20.567Z,4.15
2023-03-21T21:06:48.439Z,4.40
2023-03-21T21:09:16.853Z,4.40
2023-03-21T21:14:33.601Z,4.63
2023-03-21T21:17:22.518Z,4.20
2023-03-21T21:19:50.136Z,4.35
2023-03-21T21:22:17.684Z,4.38
2023-03-21T21:24:45.008Z,5.03
2023-03-21T21:27:13.999Z,5.30
2023-03-21T21:29:43.570Z,4.22
2023-03-21T21:32:11.496Z,4.55
2023-03-21T21:34:38.568Z,5.15
2023-03-21T21:37:05.967Z,5.60
2023-03-21T21:39:35.584Z,4.80
2023-03-21T21:42:03.758Z,4.82
2023-03-21T21:44:31.350Z,4.70
2023-03-21T21:46:59.839Z,4.90
2023-03-21T21:49:29.446Z,4.57
2023-03-21T21:51:56.462Z,4.85
2023-03-21T21:54:23.433Z,4.60
2023-03-21T21:56:54.317Z,4.30
2023-03-21T21:59:22.385Z,4.47
2023-03-21T22:01:51.621Z,4.22
2023-03-21T22:04:27.973Z,4.20
2023-03-21T22:06:55.871Z,4.10
2023-03-21T22:09:23.185Z,3.97
2023-03-21T22:11:51.144Z,4.15
2023-03-21T22:14:18.093Z,4.22
2023-03-21T22:16:46.963Z,4.60
2023-03-21T22:19:14.891Z,4.60
2023-03-21T22:21:41.738Z,5.43
2023-03-21T22:24:08.838Z,9.23
2023-03-21T22:26:36.013Z,6.60
2023-03-21T22:29:02.969Z,12.30
2023-03-21T22:31:29.883Z,13.35
2023-03-21T22:33:56.836Z,14.52
2023-03-21T22:36:24.026Z,15.10
2023-03-21T22:38:50.970Z,15.25
2023-03-21T22:41:17.812Z,14.82
2023-03-21T22:43:44.671Z,7.95
2023-03-21T22:46:12.140Z,7.43
2023-03-21T22:48:39.065Z,9.27
2023-03-21T22:51:06.230Z,9.02
2023-03-21T22:53:33.081Z,7.05
2023-03-21T22:56:00.012Z,7.63
2023-03-21T22:58:27.850Z,6.88
2023-03-21T23:01:00.982Z,10.13
2023-03-21T23:03:28.308Z,7.65
2023-03-21T23:05:59.350Z,5.90
2023-03-21T23:08:27.368Z,5.65
2023-03-21T23:10:54.535Z,5.90
2023-03-21T23:13:23.944Z,5.68
2023-03-21T23:15:52.832Z,6.22
2023-03-21T23:18:19.916Z,6.03
2023-03-21T23:20:49.771Z,6.88
2023-03-21T23:23:16.813Z,6.00
2023-03-21T23:25:43.801Z,6.43
2023-03-21T23:28:10.629Z,6.60
2023-03-21T23:30:39.261Z,7.97
2023-03-21T23:33:06.240Z,6.90
2023-03-21T23:35:36.042Z,7.80
2023-03-21T23:38:03.274Z,6.88
2023-03-21T23:40:31.007Z,6.07
2023-03-21T23:42:59.761Z,6.50
2023-03-21T23:45:26.973Z,5.65
2023-03-21T23:47:53.859Z,5.85
2023-03-21T23:50:20.844Z,5.88
2023-03-21T23:52:49.496Z,6.10
2023-03-21T23:55:16.503Z,6.57
2023-03-21T23:57:44.038Z,6.03
